createdAt,value
2023-05-16T00:01:27.769Z,15.40
2023-05-16T00:03:54.111Z,6.00
2023-05-16T00:06:20.729Z,5.43
2023-05-16T00:08:47.007Z,6.28
2023-05-16T00:11:13.224Z,5.60
2023-05-16T00:13:42.532Z,7.32
2023-05-16T00:16:08.768Z,5.93
2023-05-16T00:18:38.761Z,7.95
2023-05-16T00:21:05.347Z,5.80
2023-05-16T00:23:33.377Z,6.35
2023-05-16T00:25:59.518Z,6.68
2023-05-16T00:28:25.777Z,6.22
2023-05-16T00:30:52.166Z,7.20
2023-05-16T00:33:18.904Z,6.72
2023-05-16T00:35:47.186Z,10.02
2023-05-16T00:38:17.532Z,10.55
2023-05-16T00:40:50.678Z,10.50
2023-05-16T00:43:17.309Z,7.95
2023-05-16T00:45:44.186Z,8.02
2023-05-16T00:48:12.628Z,9.05
2023-05-16T00:50:41.901Z,9.05
2023-05-16T00:53:12.144Z,8.75
2023-05-16T00:55:38.569Z,10.07
2023-05-16T00:58:06.337Z,9.95
2023-05-16T01:00:32.816Z,10.45
2023-05-16T01:03:00.084Z,10.93
2023-05-16T01:05:32.460Z,14.20
2023-05-16T01:08:01.755Z,12.10
2023-05-16T01:10:35.964Z,14.82
2023-05-16T01:13:08.256Z,10.63
2023-05-16T01:15:43.183Z,10.57
2023-05-16T01:18:18.883Z,10.60
2023-05-16T01:21:00.848Z,10.93
2023-05-16T01:23:36.176Z,10.70
2023-05-16T01:26:18.583Z,16.73
2023-05-16T01:28:46.589Z,12.10
2023-05-16T01:31:12.888Z,11.27
2023-05-16T01:33:39.277Z,11.18
2023-05-16T01:36:37.255Z,15.25
2023-05-16T01:39:17.314Z,10.82
2023-05-16T01:42:05.696Z,11.27
2023-05-16T01:44:36.201Z,11.77
2023-05-16T01:47:04.861Z,10.55
2023-05-16T01:49:36.597Z,11.73
2023-05-16T01:52:09.899Z,11.05
2023-05-16T01:54:39.187Z,10.18
2023-05-16T01:57:07.977Z,10.55
2023-05-16T01:59:34.745Z,11.95
2023-05-16T02:02:05.018Z,10.50
2023-05-16T02:04:32.775Z,10.63
2023-05-16T02:07:00.222Z,13.55
2023-05-16T02:09:27.234Z,9.82
2023-05-16T02:11:53.555Z,10.07
2023-05-16T02:14:24.555Z,9.27
2023-05-16T02:19:22.598Z,11.98
2023-05-16T02:21:49.448Z,11.32
2023-05-16T02:24:15.795Z,9.02
2023-05-16T02:26:42.892Z,12.45
2023-05-16T02:29:09.530Z,14.60
2023-05-16T02:31:35.950Z,13.20
2023-05-16T02:34:04.651Z,11.60
2023-05-16T02:36:31.669Z,9.13
2023-05-16T02:38:57.781Z,11.13
2023-05-16T02:41:24.524Z,12.75
2023-05-16T02:43:56.006Z,10.10
2023-05-16T02:46:33.865Z,11.32
2023-05-16T02:49:00.332Z,10.18
2023-05-16T02:51:27.762Z,11.25
2023-05-16T02:53:56.617Z,9.98
2023-05-16T02:56:22.897Z,13.15
2023-05-16T02:58:49.604Z,11.43
2023-05-16T03:01:18.909Z,11.80
2023-05-16T03:03:48.455Z,14.55
2023-05-16T03:06:16.086Z,14.40
2023-05-16T03:08:47.000Z,11.32
2023-05-16T03:11:14.419Z,11.30
2023-05-16T03:13:41.850Z,12.85
2023-05-16T03:16:08.856Z,13.07
2023-05-16T03:18:34.994Z,12.00
2023-05-16T03:21:05.352Z,11.18
2023-05-16T03:23:32.420Z,11.43
2023-05-16T03:25:58.827Z,10.82
2023-05-16T03:28:25.475Z,11.30
2023-05-16T03:30:52.588Z,20.35
2023-05-16T03:33:19.050Z,12.05
2023-05-16T03:35:47.918Z,15.10
2023-05-16T03:38:14.193Z,13.02
2023-05-16T03:40:41.044Z,14.68
2023-05-16T03:43:07.199Z,17.35
2023-05-16T03:45:33.440Z,15.55
2023-05-16T03:47:59.955Z,11.93
2023-05-16T03:50:29.031Z,12.93
2023-05-16T03:52:56.960Z,12.75
2023-05-16T03:55:23.228Z,17.60
2023-05-16T03:57:50.910Z,13.00
2023-05-16T04:00:17.523Z,13.93
2023-05-16T04:02:44.691Z,12.73
2023-05-16T04:05:14.437Z,12.82
2023-05-16T04:07:40.992Z,15.98
2023-05-16T04:10:07.667Z,15.00
2023-05-16T04:12:33.845Z,18.67
2023-05-16T04:15:00.960Z,20.42
2023-05-16T04:17:30.202Z,14.35
2023-05-16T04:19:56.517Z,21.52
2023-05-16T04:22:28.152Z,13.07
2023-05-16T04:24:54.317Z,13.70
2023-05-16T04:27:20.549Z,14.70
2023-05-16T04:29:46.902Z,14.70
2023-05-16T04:32:13.284Z,14.48
2023-05-16T04:34:40.436Z,14.90
2023-05-16T04:37:08.864Z,12.70
2023-05-16T04:39:36.264Z,13.48
2023-05-16T04:42:02.916Z,15.77
2023-05-16T04:44:30.072Z,14.63
2023-05-16T04:46:56.414Z,13.43
2023-05-16T04:49:22.621Z,13.75
2023-05-16T04:51:49.252Z,13.07
2023-05-16T04:54:15.499Z,17.05
2023-05-16T04:56:41.830Z,16.70
2023-05-16T04:59:08.955Z,14.45
2023-05-16T05:01:35.423Z,15.38
2023-05-16T05:04:01.884Z,14.40
2023-05-16T05:06:28.878Z,13.27
2023-05-16T05:08:55.341Z,13.48
2023-05-16T05:11:21.899Z,13.23
2023-05-16T05:13:53.064Z,15.48
2023-05-16T05:16:19.766Z,13.45
2023-05-16T05:18:45.960Z,13.52
2023-05-16T05:21:16.305Z,16.10
2023-05-16T05:23:42.539Z,16.38
2023-05-16T05:26:11.765Z,13.32
2023-05-16T05:28:38.438Z,15.02
2023-05-16T05:31:08.272Z,14.63
2023-05-16T05:33:34.581Z,13.68
2023-05-16T05:36:04.244Z,13.25
2023-05-16T05:38:30.611Z,12.73
2023-05-16T05:40:59.880Z,12.52
2023-05-16T05:43:26.153Z,10.48
2023-05-16T05:45:52.371Z,10.38
2023-05-16T05:48:19.086Z,9.82
2023-05-16T05:50:47.645Z,9.55
2023-05-16T05:53:13.858Z,11.25
2023-05-16T05:55:41.891Z,8.65
2023-05-16T05:58:11.122Z,9.95
2023-05-16T06:00:37.457Z,9.43
2023-05-16T06:03:03.970Z,8.88
2023-05-16T06:05:31.944Z,12.52
2023-05-16T06:08:01.474Z,8.45
2023-05-16T06:10:27.904Z,11.85
2023-05-16T06:12:56.418Z,9.50
2023-05-16T06:15:22.800Z,11.02
2023-05-16T06:17:49.479Z,12.00
2023-05-16T06:20:16.805Z,8.25
2023-05-16T06:22:43.013Z,10.38
2023-05-16T06:25:09.716Z,8.95
2023-05-16T06:27:35.907Z,9.63
2023-05-16T06:30:02.067Z,8.13
2023-05-16T06:32:29.143Z,9.65
2023-05-16T06:34:55.626Z,11.63
2023-05-16T06:37:23.204Z,6.78
2023-05-16T06:39:49.606Z,7.40
2023-05-16T06:42:15.938Z,6.82
2023-05-16T06:44:42.244Z,8.82
2023-05-16T06:47:08.469Z,10.10
2023-05-16T06:49:34.890Z,6.05
2023-05-16T06:52:01.144Z,7.05
2023-05-16T06:54:30.465Z,5.72
2023-05-16T06:56:57.768Z,6.10
2023-05-16T06:59:24.836Z,12.45
2023-05-16T07:01:51.641Z,5.57
2023-05-16T07:04:18.048Z,5.30
2023-05-16T07:06:44.284Z,4.70
2023-05-16T07:09:11.141Z,9.90
2023-05-16T07:11:37.576Z,5.53
2023-05-16T07:14:06.986Z,9.63
2023-05-16T07:16:33.644Z,7.00
2023-05-16T07:19:00.256Z,5.07
2023-05-16T07:21:26.869Z,7.93
2023-05-16T07:23:53.243Z,8.48
2023-05-16T07:26:24.530Z,10.23
2023-05-16T07:28:50.822Z,6.72
2023-05-16T07:31:17.372Z,4.32
2023-05-16T07:33:45.396Z,5.35
2023-05-16T07:36:16.709Z,5.15
2023-05-16T07:38:44.075Z,3.15
2023-05-16T07:41:10.436Z,7.35
2023-05-16T07:43:36.591Z,3.92
2023-05-16T07:46:03.540Z,5.20
2023-05-16T07:48:32.084Z,4.82
2023-05-16T07:50:58.693Z,3.20
2023-05-16T07:53:24.953Z,5.22
2023-05-16T07:55:52.074Z,3.15
2023-05-16T07:58:18.242Z,2.58
2023-05-16T08:00:44.523Z,4.20
2023-05-16T08:03:11.065Z,6.20
2023-05-16T08:05:37.534Z,2.88
2023-05-16T08:08:04.026Z,5.18
2023-05-16T08:10:34.330Z,5.10
2023-05-16T08:13:03.956Z,3.78
2023-05-16T08:15:30.914Z,4.28
2023-05-16T08:18:00.767Z,3.75
2023-05-16T08:20:27.638Z,3.38
2023-05-16T08:22:55.971Z,4.43
2023-05-16T08:25:22.502Z,3.75
2023-05-16T08:27:52.693Z,4.75
2023-05-16T08:30:19.026Z,3.05
2023-05-16T08:32:47.901Z,2.58
2023-05-16T08:35:14.486Z,5.32
2023-05-16T08:37:43.011Z,2.47
2023-05-16T08:40:14.135Z,4.35
2023-05-16T08:42:41.911Z,2.10
2023-05-16T08:45:10.468Z,3.40
2023-05-16T08:47:41.245Z,7.13
2023-05-16T08:50:09.657Z,3.88
2023-05-16T08:52:38.212Z,2.38
2023-05-16T08:55:11.115Z,2.08
2023-05-16T08:57:38.556Z,3.95
2023-05-16T09:00:16.508Z,4.05
2023-05-16T09:02:44.350Z,4.70
2023-05-16T09:05:13.002Z,2.20
2023-05-16T09:07:40.321Z,4.53
2023-05-16T09:10:08.093Z,2.03
2023-05-16T09:12:39.760Z,5.63
2023-05-16T09:15:13.270Z,5.30
2023-05-16T09:17:44.890Z,5.05
2023-05-16T09:20:17.087Z,4.10
2023-05-16T09:23:09.653Z,7.53
2023-05-16T09:28:22.126Z,4.18
2023-05-16T09:30:48.724Z,5.30
2023-05-16T09:33:14.982Z,7.25
2023-05-16T09:35:45.320Z,2.97
2023-05-16T09:38:18.484Z,3.60
2023-05-16T09:40:46.033Z,5.53
2023-05-16T09:43:15.861Z,4.78
2023-05-16T09:45:46.002Z,2.80
2023-05-16T09:48:20.351Z,8.45
2023-05-16T09:50:50.808Z,2.28
2023-05-16T09:53:19.415Z,3.75
2023-05-16T09:55:46.024Z,8.40
2023-05-16T09:58:12.227Z,7.30
2023-05-16T10:00:41.191Z,7.35
2023-05-16T10:03:08.086Z,4.15
2023-05-16T10:05:35.438Z,3.97
2023-05-16T10:08:20.794Z,5.55
2023-05-16T10:10:51.416Z,2.47
2023-05-16T10:13:20.844Z,5.97
2023-05-16T10:15:51.534Z,6.22
2023-05-16T10:18:22.712Z,7.57
2023-05-16T10:20:52.198Z,6.65
2023-05-16T10:23:22.465Z,5.25
2023-05-16T10:25:50.232Z,6.78
2023-05-16T10:28:16.762Z,7.00
2023-05-16T10:30:47.023Z,9.15
2023-05-16T10:33:19.990Z,6.13
2023-05-16T10:35:46.657Z,3.47
2023-05-16T10:38:17.481Z,6.28
2023-05-16T10:40:44.975Z,5.80
2023-05-16T10:43:22.817Z,6.07
2023-05-16T10:45:55.110Z,8.65
2023-05-16T10:48:31.905Z,6.60
2023-05-16T10:51:00.005Z,5.75
2023-05-16T10:53:37.232Z,10.63
2023-05-16T10:56:05.250Z,8.35
2023-05-16T10:58:34.706Z,15.13
2023-05-16T11:01:21.606Z,11.23
2023-05-16T11:03:59.586Z,6.60
2023-05-16T11:06:28.459Z,10.95
2023-05-16T11:09:05.663Z,8.50
2023-05-16T11:11:41.559Z,10.77
2023-05-16T11:14:17.576Z,9.48
2023-05-16T11:16:48.729Z,8.48
2023-05-16T11:19:31.012Z,7.95
2023-05-16T11:22:10.728Z,15.48
2023-05-16T11:24:38.956Z,10.65
2023-05-16T11:27:11.016Z,6.90
2023-05-16T11:29:38.270Z,6.43
2023-05-16T11:32:05.548Z,7.50
2023-05-16T11:34:35.367Z,9.77
2023-05-16T11:37:06.970Z,9.27
2023-05-16T11:39:34.089Z,8.45
2023-05-16T11:42:00.215Z,5.57
2023-05-16T11:44:26.483Z,3.53
2023-05-16T11:46:55.024Z,8.57
2023-05-16T11:49:23.910Z,4.70
2023-05-16T11:51:52.156Z,6.18
2023-05-16T11:54:19.375Z,6.25
2023-05-16T11:56:45.606Z,4.80
2023-05-16T11:59:12.392Z,5.90
2023-05-16T12:01:39.388Z,5.88
2023-05-16T12:04:09.988Z,9.95
2023-05-16T12:06:42.340Z,8.00
2023-05-16T12:09:12.086Z,6.88
2023-05-16T12:11:43.372Z,5.07
2023-05-16T12:14:12.567Z,7.32
2023-05-16T12:16:46.031Z,5.80
2023-05-16T12:19:15.934Z,6.45
2023-05-16T12:21:42.723Z,9.50
2023-05-16T12:24:11.504Z,8.57
2023-05-16T12:26:42.217Z,11.00
2023-05-16T12:29:08.471Z,2.85
2023-05-16T12:31:42.408Z,7.15
2023-05-16T12:34:16.449Z,9.93
2023-05-16T12:36:43.125Z,3.75
2023-05-16T12:39:12.559Z,9.10
2023-05-16T12:41:42.966Z,11.30
2023-05-16T12:44:17.557Z,5.65
2023-05-16T12:46:50.024Z,8.30
2023-05-16T12:49:22.110Z,2.65
2023-05-16T12:51:50.231Z,5.63
2023-05-16T12:54:16.575Z,6.88
2023-05-16T12:56:46.739Z,5.50
2023-05-16T12:59:13.073Z,10.80
2023-05-16T13:01:40.364Z,8.60
2023-05-16T13:04:17.960Z,12.27
2023-05-16T13:06:56.809Z,5.60
2023-05-16T13:09:28.160Z,5.93
2023-05-16T13:11:56.456Z,7.13
2023-05-16T13:14:22.624Z,6.78
2023-05-16T13:16:52.008Z,12.77
2023-05-16T13:19:18.175Z,5.07
2023-05-16T13:21:44.419Z,7.22
2023-05-16T13:24:13.534Z,6.18
2023-05-16T13:26:39.714Z,8.48
2023-05-16T13:29:05.890Z,4.38
2023-05-16T13:31:32.198Z,4.47
2023-05-16T13:34:01.473Z,8.93
2023-05-16T13:36:28.672Z,12.35
2023-05-16T13:38:59.120Z,6.18
2023-05-16T13:41:26.008Z,6.28
2023-05-16T13:43:52.370Z,5.15
2023-05-16T13:46:18.638Z,9.95
2023-05-16T13:48:45.207Z,11.95
2023-05-16T13:51:11.639Z,7.60
2023-05-16T13:53:39.365Z,9.88
2023-05-16T13:56:06.228Z,16.65
2023-05-16T13:58:37.065Z,3.75
2023-05-16T14:01:07.737Z,3.70
2023-05-16T14:03:36.401Z,5.20
2023-05-16T14:06:03.174Z,4.40
2023-05-16T14:08:32.031Z,9.95
2023-05-16T14:10:58.330Z,4.75
2023-05-16T14:13:24.852Z,4.00
2023-05-16T14:15:54.240Z,6.05
2023-05-16T14:18:20.818Z,6.55
2023-05-16T14:20:47.555Z,4.30
2023-05-16T14:23:16.234Z,6.35
2023-05-16T14:25:45.603Z,5.90
2023-05-16T14:28:14.650Z,5.97
2023-05-16T14:30:42.048Z,4.68
2023-05-16T14:33:10.893Z,3.25
2023-05-16T14:35:39.764Z,3.28
2023-05-16T14:38:11.702Z,3.20
2023-05-16T14:40:38.061Z,5.88
2023-05-16T14:43:04.393Z,6.10
2023-05-16T14:45:30.920Z,6.30
2023-05-16T14:47:57.414Z,5.60
2023-05-16T14:50:23.672Z,4.10
2023-05-16T14:52:50.818Z,4.75
2023-05-16T14:55:16.967Z,2.92
2023-05-16T14:57:45.347Z,3.17
2023-05-16T15:00:15.052Z,5.72
2023-05-16T15:02:44.530Z,4.15
2023-05-16T15:05:10.880Z,5.00
2023-05-16T15:07:39.118Z,8.23
2023-05-16T15:10:06.698Z,6.32
2023-05-16T15:12:32.914Z,4.32
2023-05-16T15:14:59.307Z,4.75
2023-05-16T15:17:28.399Z,4.38
2023-05-16T15:19:54.569Z,3.58
2023-05-16T15:22:23.283Z,3.38
2023-05-16T15:24:52.210Z,3.88
2023-05-16T15:27:18.452Z,3.08
2023-05-16T15:29:47.791Z,4.72
2023-05-16T15:32:14.118Z,3.50
2023-05-16T15:34:40.402Z,3.45
2023-05-16T15:37:10.060Z,9.18
2023-05-16T15:39:36.330Z,2.60
2023-05-16T15:42:10.682Z,7.88
2023-05-16T15:44:38.294Z,3.03
2023-05-16T15:47:05.025Z,3.22
2023-05-16T15:49:31.446Z,2.15
2023-05-16T15:52:01.893Z,3.28
2023-05-16T15:54:28.958Z,4.95
2023-05-16T15:56:55.419Z,6.78
2023-05-16T15:59:29.576Z,4.57
2023-05-16T16:01:58.430Z,3.40
2023-05-16T16:04:24.874Z,6.00
2023-05-16T16:06:51.111Z,4.45
2023-05-16T16:09:17.743Z,5.28
2023-05-16T16:11:44.390Z,4.00
2023-05-16T16:14:13.343Z,2.80
2023-05-16T16:16:40.803Z,5.60
2023-05-16T16:19:07.865Z,3.33
2023-05-16T16:21:35.158Z,6.53
2023-05-16T16:24:02.088Z,1.65
2023-05-16T16:26:29.136Z,3.08
2023-05-16T16:28:59.519Z,2.95
2023-05-16T16:31:25.987Z,3.22
2023-05-16T16:33:52.732Z,2.33
2023-05-16T16:36:20.303Z,1.70
2023-05-16T16:38:49.222Z,7.03
2023-05-16T16:41:16.569Z,6.45
2023-05-16T16:43:45.447Z,5.38
2023-05-16T16:46:20.007Z,4.65
2023-05-16T16:48:49.183Z,0.68
2023-05-16T16:51:15.481Z,4.35
2023-05-16T16:53:42.423Z,4.35
2023-05-16T16:56:08.824Z,3.90
2023-05-16T16:58:35.291Z,2.28
2023-05-16T17:01:01.904Z,1.80
2023-05-16T17:03:32.055Z,5.93
2023-05-16T17:06:06.662Z,3.05
2023-05-16T17:08:34.562Z,1.75
2023-05-16T17:11:04.987Z,3.78
2023-05-16T17:13:33.756Z,7.75
2023-05-16T17:16:05.715Z,3.58
2023-05-16T17:18:34.873Z,2.50
2023-05-16T17:21:02.084Z,5.85
2023-05-16T17:23:28.959Z,2.10
2023-05-16T17:25:55.496Z,4.18
2023-05-16T17:28:22.103Z,1.73
2023-05-16T17:30:52.509Z,6.30
2023-05-16T17:33:19.309Z,3.20
2023-05-16T17:35:46.164Z,11.43
2023-05-16T17:38:13.228Z,2.53
2023-05-16T17:41:01.084Z,3.10
2023-05-16T17:43:29.885Z,4.15
2023-05-16T17:45:56.596Z,3.60
2023-05-16T17:48:27.751Z,2.97
2023-05-16T17:50:54.294Z,3.08
2023-05-16T17:53:26.715Z,4.32
2023-05-16T17:55:57.528Z,7.43
2023-05-16T17:58:33.639Z,2.90
2023-05-16T18:01:10.816Z,4.25
2023-05-16T18:03:37.222Z,8.25
2023-05-16T18:06:06.957Z,6.55
2023-05-16T18:08:33.134Z,5.47
2023-05-16T18:11:01.233Z,2.35
2023-05-16T18:13:29.142Z,4.60
2023-05-16T18:15:56.574Z,5.40
2023-05-16T18:18:22.828Z,4.97
2023-05-16T18:20:50.615Z,5.38
2023-05-16T18:23:16.775Z,6.85
2023-05-16T18:25:48.113Z,3.30
2023-05-16T18:28:16.955Z,4.57
2023-05-16T18:30:46.359Z,6.50
2023-05-16T18:33:12.928Z,5.47
2023-05-16T18:35:39.167Z,3.28
2023-05-16T18:38:05.929Z,4.05
2023-05-16T18:40:32.495Z,3.08
2023-05-16T18:43:04.475Z,4.20
2023-05-16T18:45:33.326Z,6.30
2023-05-16T18:48:02.007Z,3.00
2023-05-16T18:50:28.498Z,1.42
2023-05-16T18:52:57.178Z,2.75
2023-05-16T18:55:27.472Z,1.98
2023-05-16T18:57:57.442Z,5.78
2023-05-16T19:00:23.934Z,1.52
2023-05-16T19:02:51.016Z,8.00
2023-05-16T19:05:20.988Z,3.13
2023-05-16T19:07:47.523Z,4.28
2023-05-16T19:10:14.701Z,4.55
2023-05-16T19:12:46.517Z,2.92
2023-05-16T19:15:12.784Z,4.18
2023-05-16T19:17:46.416Z,4.10
2023-05-16T19:20:15.859Z,5.22
2023-05-16T19:22:42.398Z,3.45
2023-05-16T19:25:09.120Z,4.93
2023-05-16T19:27:35.662Z,1.67
2023-05-16T19:30:05.132Z,3.63
2023-05-16T19:32:38.663Z,1.52
2023-05-16T19:35:06.419Z,2.25
2023-05-16T19:37:32.894Z,7.03
2023-05-16T19:39:59.131Z,4.68
2023-05-16T19:42:25.454Z,3.20
2023-05-16T19:44:55.180Z,2.28
2023-05-16T19:47:23.603Z,2.85
2023-05-16T19:49:58.874Z,6.85
2023-05-16T19:52:25.908Z,4.35
2023-05-16T19:54:55.351Z,2.72
2023-05-16T19:57:25.812Z,2.53
2023-05-16T19:59:53.340Z,3.72
2023-05-16T20:02:24.455Z,2.90
2023-05-16T20:04:52.476Z,3.15
2023-05-16T20:07:20.003Z,3.30
2023-05-16T20:09:46.933Z,2.50
2023-05-16T20:14:54.253Z,7.10
2023-05-16T20:17:23.689Z,4.75
2023-05-16T20:19:52.963Z,3.00
2023-05-16T20:22:21.903Z,2.70
2023-05-16T20:24:51.516Z,3.33
2023-05-16T20:27:18.485Z,2.65
2023-05-16T20:29:45.471Z,3.40
2023-05-16T20:32:12.113Z,2.33
2023-05-16T20:34:45.088Z,2.15
2023-05-16T20:37:12.151Z,4.88
2023-05-16T20:39:39.431Z,4.10
2023-05-16T20:42:12.416Z,7.93
2023-05-16T20:47:21.710Z,2.10
2023-05-16T20:49:48.514Z,2.78
2023-05-16T20:52:15.699Z,4.70
2023-05-16T20:54:44.624Z,2.50
2023-05-16T20:57:14.294Z,3.38
2023-05-16T20:59:40.765Z,2.45
2023-05-16T21:02:09.758Z,2.15
2023-05-16T21:04:41.343Z,1.58
2023-05-16T21:07:08.547Z,5.75
2023-05-16T21:09:37.325Z,4.28
2023-05-16T21:12:04.585Z,2.80
2023-05-16T21:14:33.779Z,3.38
2023-05-16T21:17:00.144Z,4.05
2023-05-16T21:19:33.563Z,3.40
2023-05-16T21:22:03.741Z,7.85
2023-05-16T21:24:31.792Z,3.75
2023-05-16T21:26:57.962Z,2.38
2023-05-16T21:29:33.184Z,2.15
2023-05-16T21:31:59.762Z,3.05
2023-05-16T21:34:26.085Z,3.17
2023-05-16T21:36:53.572Z,2.55
2023-05-16T21:39:20.024Z,2.53
2023-05-16T21:41:49.358Z,3.92
2023-05-16T21:44:18.116Z,3.80
2023-05-16T21:46:46.592Z,3.05
2023-05-16T21:49:12.874Z,1.95
2023-05-16T21:52:10.781Z,6.72
2023-05-16T21:54:42.843Z,6.05
2023-05-16T21:57:11.785Z,5.13
2023-05-16T21:59:38.248Z,1.75
2023-05-16T22:02:05.035Z,7.95
2023-05-16T22:04:31.778Z,8.55
2023-05-16T22:06:58.428Z,3.97
2023-05-16T22:09:24.588Z,3.70
2023-05-16T22:11:50.898Z,4.10
2023-05-16T22:14:17.126Z,4.72
2023-05-16T22:16:43.375Z,6.28
2023-05-16T22:19:12.146Z,5.32
2023-05-16T22:21:40.655Z,4.53
2023-05-16T22:24:07.215Z,1.90
2023-05-16T22:26:36.096Z,3.45
2023-05-16T22:29:05.685Z,4.30
2023-05-16T22:31:38.061Z,4.57
2023-05-16T22:34:04.761Z,1.42
2023-05-16T22:36:31.159Z,2.67
2023-05-16T22:38:57.674Z,4.82
2023-05-16T22:41:26.618Z,3.67
2023-05-16T22:43:53.022Z,3.53
2023-05-16T22:46:19.381Z,4.05
2023-05-16T22:48:46.233Z,3.53
2023-05-16T22:51:12.542Z,3.75
2023-05-16T22:53:39.214Z,3.75
2023-05-16T22:56:08.454Z,2.08
2023-05-16T22:58:37.458Z,1.90
2023-05-16T23:01:07.554Z,3.55
2023-05-16T23:03:33.948Z,2.42
2023-05-16T23:06:00.194Z,3.40
2023-05-16T23:08:29.698Z,3.05
2023-05-16T23:10:56.520Z,4.60
2023-05-16T23:13:23.027Z,0.95
2023-05-16T23:15:49.386Z,4.28
2023-05-16T23:18:18.028Z,5.03
2023-05-16T23:20:44.556Z,3.05
2023-05-16T23:23:10.865Z,2.03
2023-05-16T23:25:39.834Z,4.35
2023-05-16T23:28:06.150Z,5.55
2023-05-16T23:30:32.594Z,5.18
2023-05-16T23:32:59.099Z,2.85
2023-05-16T23:35:25.730Z,4.28
2023-05-16T23:37:52.073Z,4.72
2023-05-16T23:40:19.784Z,4.22
2023-05-16T23:42:46.106Z,6.30
2023-05-16T23:45:15.004Z,2.80
2023-05-16T23:47:44.309Z,3.28
2023-05-16T23:50:11.071Z,6.68
2023-05-16T23:52:37.765Z,6.78
2023-05-16T23:55:06.233Z,2.92
2023-05-16T23:57:35.257Z,3.97
